Halifax Stanfield International Airport

Airport
ICAO code: 
CYHZ
IATA Code: 
YHZ
Summary
ICAO Region: 
NAM
Territory: 
Location: 
Halifax, Nova Scotia,
Serving: 
Halifax
Elevation: 
477 ft
Coordinates: 
Aerial View: 
44° 52' 49.743" N, 63° 30' 50.276" W
Metar
Observation
CYHZ 260400Z 29011G17KT 15SM OVC021 00/M02 A2991 RMK SC8 SLP137
Station
Halifax International Airport
Date/Time
2022-01-26 04:00:00
Wind direction
290°
Wind speed
11 kts
Lowest cloud amount
overcast
Temperature
0°C
Dew point
-2°C
Humidity
86%
Weather condition
n/a

Description

Officially named Halifax International Airport, serves Halifax and environs, Nova Scotia.

Climatology

Humid Continental climate (Köppen climate classification Dfb) - Variable weather patterns and a large seasonal temperature variance. Summers are often warm and humid with frequent thunderstorms and winters can be very cold with frequent snowfall and persistent snow cover.

Runways

Designator Length Width Surface Rops
14/32 2347 61 ASP Yes/Yes
5/23 2682 61 PEM Yes/Yes
Airport map: 
Aerial View: 

SKYbrary Partners:

Safety knowledge contributed by: